Time;durP1;ratioP1;P1;durP2;ratioP2;P2;SDS_P1;SDS_P2;PMS_P1;PMS_P2;Temp;Humidity;BMP_temperature;BMP_pressure;BME280_temperature;BME280_humidity;BME280_pressure;Samples;Min_cycle;Max_cycle;Signal;HPM_P1;HPM_P2
2023/01/16 00:02:00;;;;;;;6.30;5.23;;;5.70;99.90;;;;;;4954218;28;20498;-66
2023/01/16 00:04:28;;;;;;;5.87;4.93;;;5.80;99.90;;;;;;4954695;28;20977;-66
2023/01/16 00:06:56;;;;;;;8.33;5.70;;;5.80;99.90;;;;;;4954299;28;20484;-66
2023/01/16 00:09:25;;;;;;;7.93;5.43;;;5.80;99.90;;;;;;4954853;28;20462;-66
2023/01/16 00:11:54;;;;;;;8.40;5.63;;;5.80;99.90;;;;;;4954566;28;20241;-66
2023/01/16 00:14:22;;;;;;;7.47;5.97;;;5.80;99.90;;;;;;4954600;29;20237;-66
2023/01/16 00:16:50;;;;;;;9.00;5.80;;;5.80;99.90;;;;;;4954403;29;20469;-66
2023/01/16 00:19:18;;;;;;;9.87;6.20;;;5.80;99.90;;;;;;4954839;28;20238;-66
2023/01/16 00:21:47;;;;;;;9.53;6.30;;;5.80;99.90;;;;;;4954520;29;20482;-66
2023/01/16 00:24:16;;;;;;;10.10;5.97;;;5.80;99.90;;;;;;4954412;28;20691;-66
2023/01/16 00:26:44;;;;;;;12.67;6.77;;;5.80;99.90;;;;;;4953091;29;20745;-66
2023/01/16 00:29:13;;;;;;;11.77;6.33;;;5.80;99.90;;;;;;4954622;28;20467;-66
2023/01/16 00:31:41;;;;;;;9.63;5.97;;;5.80;99.90;;;;;;4953808;28;20479;-66
2023/01/16 00:34:09;;;;;;;7.77;5.33;;;5.80;99.90;;;;;;4954472;29;20541;-66
2023/01/16 00:36:38;;;;;;;7.40;5.60;;;5.70;99.90;;;;;;4954198;29;20872;-66
2023/01/16 00:39:06;;;;;;;6.87;5.50;;;5.70;99.90;;;;;;4954316;29;20237;-66
2023/01/16 00:41:35;;;;;;;8.10;5.30;;;5.70;99.90;;;;;;4954430;29;20238;-66
2023/01/16 00:44:03;;;;;;;8.13;5.37;;;5.70;99.90;;;;;;4954294;29;20234;-66
2023/01/16 00:46:32;;;;;;;7.87;4.97;;;5.80;99.90;;;;;;4954413;29;20231;-66
2023/01/16 00:49:00;;;;;;;10.87;5.37;;;5.70;99.90;;;;;;4954562;28;20588;-66
2023/01/16 00:51:28;;;;;;;6.63;4.57;;;5.80;99.90;;;;;;4954023;29;20471;-66
2023/01/16 00:53:56;;;;;;;8.33;4.70;;;5.80;99.90;;;;;;4954173;29;20579;-66
2023/01/16 00:56:24;;;;;;;7.23;4.13;;;5.80;99.90;;;;;;4954415;28;20235;-66
2023/01/16 00:58:52;;;;;;;5.77;3.60;;;5.70;99.90;;;;;;4954258;28;20729;-66
2023/01/16 01:01:20;;;;;;;7.00;4.17;;;5.70;99.90;;;;;;4953431;28;20488;-66
2023/01/16 01:03:50;;;;;;;6.40;3.57;;;5.70;99.90;;;;;;4953683;28;20475;-66
2023/01/16 01:06:18;;;;;;;5.13;2.63;;;5.70;99.90;;;;;;4953781;28;20242;-66
2023/01/16 01:08:46;;;;;;;6.60;2.50;;;5.70;99.90;;;;;;4953905;29;20462;-66
2023/01/16 01:11:15;;;;;;;4.27;2.47;;;5.70;99.90;;;;;;4954057;29;20473;-66
2023/01/16 01:13:44;;;;;;;2.93;2.00;;;5.60;99.90;;;;;;4954038;29;20494;-66
2023/01/16 01:16:12;;;;;;;5.10;2.60;;;5.60;99.90;;;;;;4954312;29;20591;-66
2023/01/16 01:18:41;;;;;;;4.30;2.50;;;5.60;99.90;;;;;;4954087;29;20281;-66
2023/01/16 01:21:10;;;;;;;4.97;2.60;;;5.70;99.90;;;;;;4953932;29;20481;-66
2023/01/16 01:23:38;;;;;;;5.57;2.40;;;5.70;99.90;;;;;;4953710;29;20262;-66
2023/01/16 01:26:08;;;;;;;3.80;2.40;;;5.70;99.90;;;;;;4953903;28;20247;-66
2023/01/16 01:28:36;;;;;;;5.80;2.30;;;5.60;99.90;;;;;;4956318;28;20471;-66
2023/01/16 01:31:05;;;;;;;4.37;2.30;;;5.70;99.90;;;;;;4956864;28;20481;-66
2023/01/16 01:33:33;;;;;;;3.93;2.67;;;5.60;99.90;;;;;;4957187;28;20231;-66
2023/01/16 01:36:01;;;;;;;3.33;2.40;;;5.70;99.90;;;;;;4956864;29;20474;-66
2023/01/16 01:38:31;;;;;;;4.90;2.37;;;5.70;99.90;;;;;;4957338;28;20225;-66
2023/01/16 01:40:59;;;;;;;4.90;2.70;;;5.70;99.90;;;;;;4957229;29;20230;-66
2023/01/16 01:43:40;;;;;;;7.63;3.07;;;5.70;99.90;;;;;;4957179;29;20258;-66
2023/01/16 01:46:19;;;;;;;3.77;2.80;;;5.70;99.90;;;;;;4957013;28;20992;-66
2023/01/16 01:48:50;;;;;;;3.30;2.90;;;5.70;99.90;;;;;;4957190;29;20231;-66
2023/01/16 01:51:23;;;;;;;4.30;2.83;;;5.80;99.90;;;;;;4957250;29;20234;-66
2023/01/16 01:53:57;;;;;;;5.67;2.50;;;5.70;99.90;;;;;;4956729;29;20849;-66
2023/01/16 01:56:28;;;;;;;4.50;2.73;;;5.70;99.90;;;;;;4956728;28;20245;-66
2023/01/16 01:59:07;;;;;;;4.90;2.93;;;5.70;99.90;;;;;;4956931;28;20486;-66
2023/01/16 02:01:36;;;;;;;5.20;3.00;;;5.70;99.90;;;;;;4955813;28;20566;-66
2023/01/16 02:04:08;;;;;;;3.67;2.97;;;5.70;99.90;;;;;;4956923;29;20480;-66
2023/01/16 02:06:49;;;;;;;5.33;2.80;;;5.60;99.90;;;;;;4955918;28;20485;-66
2023/01/16 02:09:19;;;;;;;4.30;2.87;;;5.60;99.90;;;;;;4956696;29;20223;-66
2023/01/16 02:11:53;;;;;;;3.73;2.67;;;5.60;99.90;;;;;;4956754;28;20247;-66
2023/01/16 02:14:22;;;;;;;3.53;2.60;;;5.60;99.90;;;;;;4956514;29;20242;-66
2023/01/16 02:19:48;;;;;;;6.90;2.60;;;5.60;99.90;;;;;;4956600;29;20231;-66
2023/01/16 02:22:46;;;;;;;4.80;2.50;;;5.60;99.90;;;;;;4956428;28;20720;-66
2023/01/16 02:25:46;;;;;;;4.13;2.60;;;5.50;99.90;;;;;;4956954;28;20602;-66
2023/01/16 02:28:40;;;;;;;4.63;2.10;;;5.50;99.90;;;;;;4956059;28;20250;-66
2023/01/16 02:31:30;;;;;;;4.83;2.30;;;5.40;99.90;;;;;;4955625;28;20316;-66
2023/01/16 02:34:20;;;;;;;4.47;2.10;;;5.30;99.90;;;;;;4956257;29;20490;-66
2023/01/16 02:36:58;;;;;;;3.57;1.60;;;5.40;99.90;;;;;;4955794;29;20762;-66
2023/01/16 02:39:35;;;;;;;5.10;2.10;;;5.40;99.90;;;;;;4955143;28;20234;-66
2023/01/16 02:42:14;;;;;;;3.73;1.70;;;5.30;99.90;;;;;;4955897;29;20237;-66
2023/01/16 02:44:50;;;;;;;5.70;2.03;;;5.30;99.90;;;;;;4956142;29;20594;-66
2023/01/16 02:47:26;;;;;;;5.57;1.77;;;5.30;99.90;;;;;;4956560;28;20241;-66
2023/01/16 02:50:03;;;;;;;2.90;1.70;;;5.30;99.90;;;;;;4955846;28;20473;-66
2023/01/16 02:52:38;;;;;;;3.17;2.00;;;5.30;99.90;;;;;;4955301;28;20230;-66
2023/01/16 02:55:13;;;;;;;4.20;1.90;;;5.30;99.90;;;;;;4955612;28;20248;-66
2023/01/16 02:57:46;;;;;;;2.83;1.67;;;5.30;99.90;;;;;;4955729;29;20982;-66
2023/01/16 03:00:19;;;;;;;3.87;1.73;;;5.30;99.90;;;;;;4955154;28;20797;-66
2023/01/16 03:02:48;;;;;;;4.30;1.90;;;5.30;99.90;;;;;;4955138;28;20842;-66
2023/01/16 03:05:16;;;;;;;4.23;1.87;;;5.30;99.90;;;;;;4955410;29;20477;-66
2023/01/16 03:08:26;;;;;;;4.43;1.53;;;5.30;99.90;;;;;;4955729;29;20702;-66
2023/01/16 03:11:22;;;;;;;4.57;1.73;;;5.30;99.90;;;;;;4896467;29;20582;-66
2023/01/16 03:14:16;;;;;;;5.97;1.70;;;5.30;99.90;;;;;;4955604;28;20905;-66
2023/01/16 03:16:54;;;;;;;4.90;2.10;;;5.30;99.90;;;;;;4955028;29;20520;-66
2023/01/16 03:19:33;;;;;;;5.87;1.90;;;5.30;99.90;;;;;;4955465;29;20226;-66
2023/01/16 03:22:12;;;;;;;3.53;1.97;;;5.30;99.90;;;;;;4955519;29;20474;-66
2023/01/16 03:24:52;;;;;;;4.40;1.93;;;5.30;99.90;;;;;;4955252;28;20482;-66
2023/01/16 03:27:30;;;;;;;5.30;2.27;;;5.30;99.90;;;;;;4955526;28;20469;-66
2023/01/16 03:30:05;;;;;;;4.27;2.00;;;5.30;99.90;;;;;;4955205;29;20485;-66
2023/01/16 03:32:40;;;;;;;6.30;2.10;;;5.30;99.90;;;;;;4954564;28;20487;-66
2023/01/16 03:35:13;;;;;;;4.20;2.17;;;5.30;99.90;;;;;;4954933;28;20490;-66
2023/01/16 03:37:46;;;;;;;4.33;1.80;;;5.30;99.90;;;;;;4954991;28;20228;-66
2023/01/16 03:40:19;;;;;;;3.43;1.93;;;5.30;99.90;;;;;;4955370;28;20474;-66
2023/01/16 03:42:56;;;;;;;4.53;1.90;;;5.30;99.90;;;;;;4954928;28;20473;-66
2023/01/16 03:45:29;;;;;;;5.30;2.10;;;5.40;99.90;;;;;;4954989;28;20246;-66
2023/01/16 03:48:03;;;;;;;4.43;2.17;;;5.40;99.90;;;;;;4954602;29;20466;-66
2023/01/16 03:50:35;;;;;;;5.90;1.97;;;5.30;99.90;;;;;;4954688;28;20478;-66
2023/01/16 03:53:07;;;;;;;5.03;1.83;;;5.30;99.90;;;;;;4954981;29;20466;-66
2023/01/16 03:55:43;;;;;;;3.40;1.83;;;5.40;99.90;;;;;;4954597;29;20234;-66
2023/01/16 03:58:18;;;;;;;4.07;2.13;;;5.40;99.90;;;;;;4954668;28;20492;-66
2023/01/16 04:00:52;;;;;;;4.80;1.80;;;5.40;99.90;;;;;;4954274;28;20478;-66
2023/01/16 04:03:27;;;;;;;5.40;1.80;;;5.40;99.90;;;;;;4954483;29;20270;-66
2023/01/16 04:06:05;;;;;;;7.10;2.30;;;5.40;99.90;;;;;;4954943;28;20556;-66
2023/01/16 04:08:39;;;;;;;6.40;1.83;;;5.40;99.90;;;;;;4954824;28;20470;-66
2023/01/16 04:11:07;;;;;;;6.43;2.03;;;5.40;99.90;;;;;;4954969;28;20849;-66
2023/01/16 04:13:39;;;;;;;3.50;1.90;;;5.30;99.90;;;;;;4954467;28;20466;-66
2023/01/16 04:16:10;;;;;;;3.90;2.03;;;5.30;99.90;;;;;;4954449;28;20842;-66
2023/01/16 04:18:39;;;;;;;3.67;1.53;;;5.30;99.90;;;;;;4954105;29;20289;-66
2023/01/16 04:21:08;;;;;;;4.43;1.60;;;5.30;99.90;;;;;;4954829;29;20239;-66
2023/01/16 04:23:37;;;;;;;3.70;1.60;;;5.30;99.90;;;;;;4954499;28;20478;-66
2023/01/16 04:26:06;;;;;;;4.73;1.67;;;5.30;99.90;;;;;;4954710;29;20477;-66
2023/01/16 04:28:34;;;;;;;4.53;1.67;;;5.30;99.90;;;;;;4954456;28;20815;-66
2023/01/16 04:31:02;;;;;;;6.40;2.08;;;5.30;99.90;;;;;;4953597;28;20781;-66
2023/01/16 04:33:30;;;;;;;3.97;1.60;;;5.30;99.90;;;;;;4954488;28;20610;-66
2023/01/16 04:35:58;;;;;;;5.13;1.53;;;5.30;99.90;;;;;;4954148;28;20489;-66
2023/01/16 04:38:27;;;;;;;2.73;1.30;;;5.30;99.90;;;;;;4954329;28;20219;-66
2023/01/16 04:40:56;;;;;;;6.17;1.50;;;5.30;99.90;;;;;;4954409;28;20233;-66
2023/01/16 04:43:24;;;;;;;5.33;1.80;;;5.30;99.90;;;;;;4954160;28;20249;-66
2023/01/16 04:45:52;;;;;;;2.80;1.50;;;5.30;99.90;;;;;;4953785;29;20470;-65
2023/01/16 04:48:20;;;;;;;4.70;1.40;;;5.30;99.90;;;;;;4954599;29;20717;-65
2023/01/16 04:50:49;;;;;;;3.40;1.30;;;5.30;99.90;;;;;;4954120;28;20478;-65
2023/01/16 04:53:17;;;;;;;4.30;1.47;;;5.30;99.90;;;;;;4954354;28;20239;-65
2023/01/16 04:55:46;;;;;;;2.50;1.30;;;5.30;99.90;;;;;;4953858;29;20246;-66
2023/01/16 04:58:14;;;;;;;1.97;1.03;;;5.40;99.90;;;;;;4954324;28;20474;-65
2023/01/16 05:00:42;;;;;;;3.13;1.30;;;5.40;99.90;;;;;;4953767;28;20242;-65
2023/01/16 05:03:10;;;;;;;3.37;1.57;;;5.40;99.90;;;;;;4955825;28;20486;-65
2023/01/16 05:05:39;;;;;;;3.57;1.43;;;5.30;99.90;;;;;;4957790;28;20475;-66
2023/01/16 05:10:54;;;;;;;4.23;1.30;;;5.30;99.90;;;;;;4956935;28;20253;-65
2023/01/16 05:13:22;;;;;;;4.93;1.40;;;5.30;99.90;;;;;;4957066;28;20461;-66
2023/01/16 05:15:50;;;;;;;3.07;1.33;;;5.30;99.90;;;;;;4957605;29;20579;-66
2023/01/16 05:18:18;;;;;;;3.63;1.47;;;5.30;99.90;;;;;;4957394;29;20265;-66
2023/01/16 05:20:46;;;;;;;2.83;1.10;;;5.30;99.90;;;;;;4957220;29;20650;-66
2023/01/16 05:23:14;;;;;;;4.07;1.30;;;5.30;99.90;;;;;;4957785;29;20231;-66
2023/01/16 05:25:43;;;;;;;4.07;1.20;;;5.40;99.90;;;;;;4957239;29;20468;-66
2023/01/16 05:28:12;;;;;;;4.83;1.40;;;5.30;99.90;;;;;;4957653;28;20777;-66
2023/01/16 05:30:40;;;;;;;4.63;1.07;;;5.30;99.90;;;;;;4956751;28;20490;-65
2023/01/16 05:33:08;;;;;;;3.23;1.23;;;5.30;99.90;;;;;;4957280;28;20481;-65
2023/01/16 05:35:36;;;;;;;2.83;1.20;;;5.30;99.90;;;;;;4957005;28;20223;-66
2023/01/16 05:38:04;;;;;;;5.67;1.07;;;5.30;99.90;;;;;;4957584;28;20814;-66
2023/01/16 05:40:32;;;;;;;3.23;1.17;;;5.30;99.90;;;;;;4956794;28;20230;-65
2023/01/16 05:43:00;;;;;;;4.40;1.00;;;5.30;99.90;;;;;;4956890;29;20475;-66
2023/01/16 05:45:30;;;;;;;2.60;1.00;;;5.30;99.90;;;;;;4956875;28;20227;-66
2023/01/16 05:47:59;;;;;;;4.53;1.33;;;5.20;99.90;;;;;;4956710;28;20482;-65
2023/01/16 05:50:27;;;;;;;4.30;1.30;;;5.20;99.90;;;;;;4956531;28;20227;-65
2023/01/16 05:52:55;;;;;;;5.37;1.40;;;5.10;99.90;;;;;;4956557;29;20474;-65
2023/01/16 05:55:24;;;;;;;5.93;1.60;;;5.10;99.90;;;;;;4956737;28;20258;-66
2023/01/16 05:57:52;;;;;;;2.17;1.00;;;5.00;99.90;;;;;;4956847;28;20490;-65
2023/01/16 06:00:20;;;;;;;3.30;1.20;;;5.00;99.90;;;;;;4956591;28;20724;-65
2023/01/16 06:02:52;;;;;;;4.83;1.30;;;5.00;99.90;;;;;;4956294;28;20325;-66
2023/01/16 06:05:20;;;;;;;3.20;1.17;;;5.00;99.90;;;;;;4956259;28;20481;-66
2023/01/16 06:07:48;;;;;;;3.37;1.20;;;5.00;99.90;;;;;;4956038;29;20644;-66
2023/01/16 06:10:17;;;;;;;3.63;1.23;;;5.00;99.90;;;;;;4956571;29;20982;-66
2023/01/16 06:12:45;;;;;;;2.83;1.30;;;5.00;99.90;;;;;;4956229;28;20238;-66
2023/01/16 06:15:13;;;;;;;4.57;1.30;;;5.00;99.90;;;;;;4956360;28;20234;-66
2023/01/16 06:17:41;;;;;;;2.90;1.17;;;5.00;99.90;;;;;;4956633;28;20227;-66
2023/01/16 06:20:12;;;;;;;3.43;1.13;;;5.00;99.90;;;;;;4955954;28;20482;-66
2023/01/16 06:22:42;;;;;;;3.07;1.20;;;5.00;99.90;;;;;;4956264;29;20255;-66
2023/01/16 06:25:10;;;;;;;5.10;1.37;;;5.00;99.90;;;;;;4955510;29;20493;-66
2023/01/16 06:27:39;;;;;;;4.30;1.63;;;5.00;99.90;;;;;;4955847;29;20230;-66
2023/01/16 06:30:08;;;;;;;2.63;1.30;;;5.00;99.90;;;;;;4956071;28;20482;-66
2023/01/16 06:32:36;;;;;;;2.73;1.23;;;4.90;99.90;;;;;;4954536;28;20473;-66
2023/01/16 06:35:05;;;;;;;2.20;1.20;;;4.90;99.90;;;;;;4951724;29;20489;-66
2023/01/16 06:37:35;;;;;;;3.60;1.00;;;4.90;99.90;;;;;;4953211;29;20561;-66
2023/01/16 06:40:03;;;;;;;3.00;1.40;;;4.90;99.90;;;;;;4948866;29;20463;-66
2023/01/16 06:42:31;;;;;;;2.77;1.57;;;4.90;99.90;;;;;;4954024;28;20465;-66
2023/01/16 06:44:59;;;;;;;4.90;1.33;;;4.90;99.90;;;;;;4951253;29;20471;-66
2023/01/16 06:47:28;;;;;;;2.17;1.23;;;4.90;99.90;;;;;;4955838;28;20471;-66
2023/01/16 06:49:56;;;;;;;3.53;1.53;;;4.90;99.90;;;;;;4955442;28;20467;-66
2023/01/16 06:52:24;;;;;;;2.63;1.27;;;4.90;99.90;;;;;;4955620;28;20478;-66
2023/01/16 06:54:54;;;;;;;2.37;1.13;;;4.90;99.90;;;;;;4955741;28;20465;-66
2023/01/16 06:57:22;;;;;;;2.77;1.23;;;4.90;99.90;;;;;;4955442;28;20493;-66
2023/01/16 06:59:50;;;;;;;2.83;1.27;;;4.80;99.90;;;;;;4955283;28;20956;-66
2023/01/16 07:02:18;;;;;;;2.43;1.00;;;4.80;99.90;;;;;;4954672;28;20494;-66
2023/01/16 07:04:46;;;;;;;3.17;1.30;;;4.70;99.90;;;;;;4955262;29;20844;-66
2023/01/16 07:07:15;;;;;;;4.53;1.60;;;4.70;99.90;;;;;;4953351;28;20552;-65
2023/01/16 07:09:43;;;;;;;2.77;1.10;;;4.80;99.90;;;;;;4948643;29;20230;-65
2023/01/16 07:12:12;;;;;;;4.07;1.30;;;4.80;99.90;;;;;;4953702;29;20822;-66
2023/01/16 07:22:58;;;;;;;2.80;1.20;;;4.80;99.90;;;;;;4953668;29;20529;-66
2023/01/16 07:25:32;;;;;;;3.73;1.20;;;4.80;99.90;;;;;;4951067;28;20478;-66
2023/01/16 07:28:02;;;;;;;4.27;1.20;;;4.80;99.90;;;;;;4953953;29;20586;-66
2023/01/16 07:30:32;;;;;;;4.47;1.20;;;4.80;99.90;;;;;;4953165;28;20471;-66
2023/01/16 07:33:00;;;;;;;3.30;1.00;;;4.70;99.90;;;;;;4950527;28;20565;-66
2023/01/16 07:35:28;;;;;;;4.03;1.57;;;4.80;99.90;;;;;;4951212;29;20478;-66
2023/01/16 07:37:57;;;;;;;3.03;1.37;;;4.80;99.90;;;;;;4953984;28;20985;-66
2023/01/16 07:40:25;;;;;;;3.33;1.23;;;4.80;99.90;;;;;;4954038;28;20467;-66
2023/01/16 07:42:53;;;;;;;5.13;1.43;;;4.80;99.90;;;;;;4951658;29;20820;-66
2023/01/16 07:45:23;;;;;;;2.63;1.43;;;4.90;99.90;;;;;;4950319;29;20860;-66
2023/01/16 07:47:51;;;;;;;2.13;1.30;;;4.80;99.90;;;;;;4952949;28;20462;-66
2023/01/16 07:50:19;;;;;;;3.63;1.40;;;4.80;99.90;;;;;;4954230;28;20997;-66
2023/01/16 07:52:47;;;;;;;3.90;1.20;;;4.80;99.90;;;;;;4949629;28;20474;-66
2023/01/16 07:55:16;;;;;;;1.63;1.10;;;4.80;99.90;;;;;;4941828;28;20489;-66
2023/01/16 07:57:44;;;;;;;2.90;1.37;;;4.80;99.90;;;;;;4941024;29;20502;-66
2023/01/16 08:00:14;;;;;;;2.60;1.20;;;4.90;99.90;;;;;;4942540;28;20469;-66
2023/01/16 08:02:43;;;;;;;2.53;1.20;;;4.90;99.90;;;;;;4941863;28;20497;-66
2023/01/16 08:05:11;;;;;;;3.93;1.60;;;4.90;99.90;;;;;;4945023;29;20498;-66
2023/01/16 08:07:39;;;;;;;2.13;1.10;;;4.90;99.90;;;;;;4944453;29;20481;-66
2023/01/16 08:10:08;;;;;;;1.80;1.30;;;4.90;99.90;;;;;;4944238;29;20823;-66
2023/01/16 08:12:39;;;;;;;1.83;1.27;;;4.90;99.90;;;;;;4942875;28;20240;-66
2023/01/16 08:15:08;;;;;;;4.87;1.37;;;4.90;99.90;;;;;;4944479;28;21013;-66
2023/01/16 08:17:39;;;;;;;3.63;1.20;;;4.90;99.90;;;;;;4940719;29;20517;-66
2023/01/16 08:20:10;;;;;;;3.30;1.57;;;4.80;99.90;;;;;;4940366;29;20477;-66
2023/01/16 08:22:43;;;;;;;4.20;1.30;;;4.90;99.90;;;;;;4938839;29;20983;-66
2023/01/16 08:25:11;;;;;;;4.40;2.00;;;4.80;99.90;;;;;;4939991;28;20478;-66
2023/01/16 08:27:39;;;;;;;3.70;1.77;;;4.80;99.90;;;;;;4939866;29;20633;-66
2023/01/16 08:30:09;;;;;;;4.23;1.43;;;4.80;99.90;;;;;;4941162;29;20222;-66
2023/01/16 08:32:37;;;;;;;3.47;1.43;;;4.80;99.90;;;;;;4938436;29;20841;-66
2023/01/16 08:35:06;;;;;;;4.13;1.33;;;4.80;99.90;;;;;;4940701;28;20246;-66
2023/01/16 08:37:36;;;;;;;1.30;1.10;;;4.80;99.90;;;;;;4942587;28;20498;-66
2023/01/16 08:40:05;;;;;;;3.10;1.13;;;4.80;99.90;;;;;;4945279;28;20469;-66
2023/01/16 08:53:44;;;;;;;2.43;1.20;;;5.00;99.90;;;;;;4945189;29;20251;-66
2023/01/16 08:56:12;;;;;;;2.30;1.20;;;4.90;99.90;;;;;;4945565;28;20480;-66
2023/01/16 08:58:41;;;;;;;7.97;2.27;;;4.90;99.90;;;;;;4945357;29;20482;-66
2023/01/16 09:01:09;;;;;;;3.57;1.30;;;4.90;99.90;;;;;;4943512;28;20486;-66
2023/01/16 09:03:37;;;;;;;2.83;1.10;;;4.90;99.90;;;;;;4944423;28;20377;-66
2023/01/16 09:06:05;;;;;;;4.30;1.27;;;4.80;99.90;;;;;;4945133;29;20837;-66
2023/01/16 09:08:33;;;;;;;3.90;1.50;;;4.70;99.90;;;;;;4945447;29;20475;-66
2023/01/16 09:13:51;;;;;;;1.70;1.10;;;4.70;99.90;;;;;;4955211;29;20474;-67
2023/01/16 09:16:21;;;;;;;2.93;1.30;;;4.70;99.90;;;;;;4950053;29;20897;-67
2023/01/16 09:18:49;;;;;;;2.97;1.20;;;4.70;99.90;;;;;;4948897;29;20591;-67
2023/01/16 09:21:18;;;;;;;2.03;1.10;;;4.70;99.90;;;;;;4947174;28;20539;-67
2023/01/16 09:23:46;;;;;;;4.23;1.60;;;4.70;99.90;;;;;;4948159;28;21057;-67
2023/01/16 09:26:16;;;;;;;3.57;1.30;;;4.80;99.90;;;;;;4948356;28;20501;-67
2023/01/16 09:28:44;;;;;;;2.67;1.20;;;4.70;99.90;;;;;;4949031;28;20466;-67
2023/01/16 09:31:12;;;;;;;4.37;1.30;;;4.70;99.90;;;;;;4945550;28;20238;-67
2023/01/16 09:33:41;;;;;;;1.97;1.03;;;4.60;99.90;;;;;;4947396;28;20489;-67
2023/01/16 09:36:09;;;;;;;4.07;1.20;;;4.60;99.90;;;;;;4946890;29;20561;-66
2023/01/16 09:38:37;;;;;;;2.10;1.30;;;4.70;99.90;;;;;;4947300;28;20486;-66
2023/01/16 09:41:06;;;;;;;5.33;2.80;;;4.70;99.90;;;;;;4947521;29;20481;-66
2023/01/16 09:43:40;;;;;;;4.10;1.80;;;4.70;99.90;;;;;;4949160;29;20489;-66
2023/01/16 09:46:13;;;;;;;2.80;1.63;;;4.70;99.90;;;;;;4948207;28;20463;-66
2023/01/16 09:48:49;;;;;;;3.50;1.80;;;4.80;99.90;;;;;;4948500;28;20481;-66
2023/01/16 09:51:22;;;;;;;3.10;1.80;;;4.80;99.90;;;;;;4948619;29;21514;-66
2023/01/16 09:59:35;;;;;;;4.67;1.60;;;4.90;99.90;;;;;;4948639;28;20239;-66
2023/01/16 10:02:16;;;;;;;3.43;1.30;;;4.90;99.90;;;;;;4946897;28;20495;-66
2023/01/16 10:04:45;;;;;;;3.07;1.60;;;5.00;99.90;;;;;;4947960;28;20242;-66
2023/01/16 10:07:37;;;;;;;3.50;1.53;;;5.00;99.90;;;;;;4947632;28;21036;-66
2023/01/16 10:10:20;;;;;;;3.17;1.50;;;5.00;99.90;;;;;;4946692;29;20463;-66
2023/01/16 10:12:59;;;;;;;2.53;1.27;;;5.10;99.90;;;;;;4945614;29;20486;-66
2023/01/16 10:15:38;;;;;;;4.97;1.70;;;5.10;99.90;;;;;;4946664;29;20485;-66
2023/01/16 10:18:20;;;;;;;3.57;1.20;;;5.20;99.90;;;;;;4947530;29;20242;-66
2023/01/16 10:21:06;;;;;;;2.60;1.30;;;5.20;99.90;;;;;;4946789;28;20484;-66
2023/01/16 10:23:49;;;;;;;1.80;1.20;;;5.30;99.90;;;;;;4947276;28;21120;-66
2023/01/16 10:26:23;;;;;;;4.60;1.30;;;5.30;99.90;;;;;;4947360;29;20496;-66
2023/01/16 10:29:01;;;;;;;2.60;1.50;;;5.30;99.90;;;;;;4947272;29;20255;-66
2023/01/16 10:31:39;;;;;;;4.07;1.43;;;5.40;99.90;;;;;;4945316;28;20500;-66
2023/01/16 10:34:14;;;;;;;3.27;1.20;;;5.40;99.90;;;;;;4946750;28;21544;-66
2023/01/16 10:36:45;;;;;;;1.47;1.10;;;5.50;99.90;;;;;;4948744;29;20480;-66
2023/01/16 10:39:16;;;;;;;4.00;1.50;;;5.50;99.90;;;;;;4948289;29;20557;-67
2023/01/16 10:50:13;;;;;;;1.97;1.00;;;5.70;99.90;;;;;;4946924;29;20455;-66
2023/01/16 10:52:43;;;;;;;2.80;1.23;;;5.70;99.90;;;;;;4945972;29;20247;-66
2023/01/16 10:55:11;;;;;;;1.47;1.20;;;5.80;99.90;;;;;;4947764;28;20505;-66
2023/01/16 10:57:44;;;;;;;2.53;0.93;;;5.80;99.90;;;;;;4946802;29;20486;-66
2023/01/16 11:00:17;;;;;;;1.53;1.10;;;5.80;99.90;;;;;;4946288;28;20485;-66
2023/01/16 11:02:48;;;;;;;2.77;1.27;;;5.80;99.90;;;;;;4946287;29;20490;-66
2023/01/16 11:05:31;;;;;;;2.20;1.10;;;5.80;99.90;;;;;;4948017;29;20583;-66
2023/01/16 11:08:07;;;;;;;2.33;1.20;;;5.70;99.90;;;;;;4947634;29;20465;-66
2023/01/16 11:10:35;;;;;;;2.73;1.00;;;5.80;99.90;;;;;;4947370;29;20493;-66
2023/01/16 11:18:51;;;;;;;3.33;1.13;;;5.80;99.90;;;;;;4947878;29;20239;-66
2023/01/16 11:21:30;;;;;;;2.47;1.10;;;5.80;99.90;;;;;;5089624;27;20694;-68
2023/01/16 11:24:00;;;;;;;3.27;1.20;;;5.80;99.90;;;;;;5089266;28;20484;-68
2023/01/16 11:26:30;;;;;;;3.50;1.13;;;5.80;99.90;;;;;;5086295;28;20477;-67
2023/01/16 11:28:59;;;;;;;2.10;1.17;;;5.80;99.90;;;;;;5088287;28;20238;-67
2023/01/16 11:31:30;;;;;;;2.63;1.10;;;5.80;99.90;;;;;;5073344;28;20253;-67
2023/01/16 11:34:02;;;;;;;4.27;1.20;;;5.70;99.90;;;;;;5068540;28;20776;-67
2023/01/16 11:36:35;;;;;;;1.97;1.27;;;5.80;99.90;;;;;;5066996;28;20495;-67
2023/01/16 11:39:04;;;;;;;3.70;1.40;;;5.80;99.90;;;;;;5069434;28;20231;-67
2023/01/16 11:41:35;;;;;;;3.67;1.10;;;5.80;99.90;;;;;;5067385;28;20694;-67
2023/01/16 11:47:05;;;;;;;3.63;1.40;;;5.80;99.90;;;;;;5069453;28;20636;-67
2023/01/16 11:49:39;;;;;;;2.30;1.23;;;5.80;99.90;;;;;;5066445;28;20821;-67
2023/01/16 11:52:26;;;;;;;2.20;1.10;;;5.80;99.90;;;;;;5067140;28;20483;-67
2023/01/16 11:54:56;;;;;;;4.13;1.53;;;5.80;99.90;;;;;;5066134;28;20245;-67
2023/01/16 11:57:42;;;;;;;3.23;1.27;;;5.80;99.90;;;;;;5068336;28;20496;-67
2023/01/16 12:00:40;;;;;;;3.93;1.20;;;5.80;99.90;;;;;;5067640;28;21280;-67
2023/01/16 12:03:38;;;;;;;4.40;1.10;;;5.90;99.90;;;;;;5070298;28;20473;-67
2023/01/16 12:06:17;;;;;;;2.80;1.00;;;5.90;99.90;;;;;;5067673;28;20464;-67
2023/01/16 12:09:14;;;;;;;2.60;1.17;;;5.90;99.90;;;;;;5069985;28;21164;-67
2023/01/16 12:14:17;;;;;;;7.43;5.37;;;5.90;99.90;;;;;;5064711;28;20254;-67
2023/01/16 12:14:54;;;;;;;6.83;3.60;;;5.90;99.90;;;;;;5067071;28;20605;-64
2023/01/16 12:17:32;;;;;;;2.13;1.80;;;5.90;99.90;;;;;;5068270;28;20473;-64
2023/01/16 12:20:15;;;;;;;4.27;1.30;;;5.90;99.90;;;;;;5063706;28;20846;-65
2023/01/16 12:23:05;;;;;;;3.03;1.80;;;5.90;99.90;;;;;;5064024;28;20237;-65
2023/01/16 12:25:41;;;;;;;3.83;1.40;;;5.90;99.90;;;;;;5067609;28;21006;-64
2023/01/16 12:28:21;;;;;;;1.87;1.10;;;5.90;99.90;;;;;;5070605;28;20473;-64
2023/01/16 12:31:34;;;;;;;2.73;1.60;;;5.90;99.90;;;;;;5069433;28;20234;-64
2023/01/16 12:34:25;;;;;;;2.80;1.53;;;5.90;99.90;;;;;;5052914;28;20286;-64
2023/01/16 12:37:09;;;;;;;2.50;1.20;;;5.90;99.90;;;;;;5059998;28;20746;-64
2023/01/16 12:39:48;;;;;;;2.73;1.20;;;5.90;99.90;;;;;;5065591;28;20853;-64
2023/01/16 12:45:26;;;;;;;2.87;1.40;;;5.90;99.90;;;;;;5062664;28;20462;-64
2023/01/16 12:48:09;;;;;;;6.30;2.27;;;6.00;99.90;;;;;;5061571;28;20587;-64
2023/01/16 12:50:52;;;;;;;5.90;2.57;;;6.00;99.90;;;;;;5054431;28;20711;-64
2023/01/16 12:53:52;;;;;;;7.10;4.67;;;6.00;99.90;;;;;;5053796;28;20238;-65
2023/01/16 12:56:36;;;;;;;2.33;1.33;;;6.00;99.90;;;;;;5043407;28;21002;-64
2023/01/16 12:59:13;;;;;;;2.83;1.10;;;6.10;99.90;;;;;;5062118;28;20250;-64
2023/01/16 13:01:44;;;;;;;5.37;1.07;;;6.10;99.90;;;;;;5055467;28;20714;-64
2023/01/16 13:04:18;;;;;;;2.70;1.10;;;6.00;99.90;;;;;;5061877;28;20652;-64
2023/01/16 13:06:49;;;;;;;2.73;0.93;;;6.00;99.90;;;;;;5055855;28;20243;-64
2023/01/16 13:09:23;;;;;;;4.20;2.87;;;6.00;99.90;;;;;;5054449;28;20261;-64
2023/01/16 13:14:51;;;;;;;10.90;5.23;;;5.90;99.90;;;;;;5058323;28;20230;-65
2023/01/16 13:17:25;;;;;;;5.80;3.00;;;5.90;99.90;;;;;;5057682;28;20251;-65
2023/01/16 13:20:03;;;;;;;3.67;2.10;;;5.80;99.90;;;;;;5070233;28;20250;-65
2023/01/16 13:22:37;;;;;;;3.80;1.40;;;5.80;99.90;;;;;;5055996;28;20686;-65
2023/01/16 13:25:15;;;;;;;2.77;1.10;;;5.80;99.90;;;;;;5054990;28;20230;-65
2023/01/16 13:27:47;;;;;;;2.13;1.10;;;5.80;99.90;;;;;;5063399;28;20240;-65
2023/01/16 13:30:19;;;;;;;1.93;0.90;;;5.70;99.90;;;;;;5063859;28;20627;-65
2023/01/16 13:32:54;;;;;;;3.30;1.30;;;5.80;99.90;;;;;;5052027;28;20692;-65
2023/01/16 13:35:25;;;;;;;3.47;1.27;;;5.80;99.90;;;;;;5057601;28;20719;-65
2023/01/16 13:38:24;;;;;;;2.67;1.40;;;5.80;99.90;;;;;;5054258;28;20314;-65
2023/01/16 13:41:18;;;;;;;1.33;1.00;;;5.80;99.90;;;;;;5042270;28;20239;-65
2023/01/16 13:46:39;;;;;;;3.33;1.30;;;5.70;99.90;;;;;;5053015;28;20228;-65
2023/01/16 13:49:13;;;;;;;1.60;1.17;;;5.70;99.90;;;;;;5053926;28;20855;-65
2023/01/16 13:51:43;;;;;;;4.07;1.40;;;5.70;99.90;;;;;;5053896;28;20494;-65
2023/01/16 13:54:15;;;;;;;3.50;1.00;;;5.80;99.90;;;;;;5053377;28;20309;-65
2023/01/16 13:56:44;;;;;;;3.13;1.13;;;5.80;99.90;;;;;;5045391;28;20220;-65
2023/01/16 13:59:29;;;;;;;2.30;1.10;;;5.80;99.90;;;;;;5046597;28;20725;-65
2023/01/16 14:01:59;;;;;;;4.33;1.10;;;5.80;99.90;;;;;;5044419;28;20247;-65
2023/01/16 14:04:32;;;;;;;2.63;1.10;;;5.80;99.90;;;;;;5053612;28;20467;-65
2023/01/16 14:10:18;;;;;;;3.43;1.00;;;5.80;99.90;;;;;;5053612;28;20474;-65
2023/01/16 14:13:02;;;;;;;1.40;0.80;;;5.80;99.90;;;;;;5053432;28;20996;-65
2023/01/16 14:18:41;;;;;;;2.33;0.60;;;5.80;99.90;;;;;;5053181;28;20617;-65
2023/01/16 14:21:21;;;;;;;4.27;1.00;;;5.80;99.90;;;;;;5045735;28;20247;-65
2023/01/16 14:24:02;;;;;;;5.23;1.20;;;5.80;99.90;;;;;;5045132;28;21142;-67
2023/01/16 14:26:42;;;;;;;2.07;1.03;;;5.80;99.90;;;;;;5046527;28;20230;-67
2023/01/16 14:29:19;;;;;;;2.93;1.17;;;5.80;99.90;;;;;;5048623;28;20471;-68
2023/01/16 14:31:54;;;;;;;12.83;5.47;;;5.80;99.90;;;;;;5047498;28;20478;-67
2023/01/16 14:34:27;;;;;;;12.90;5.50;;;5.80;99.90;;;;;;5047356;28;20470;-65